Time;durP1;ratioP1;P1;durP2;ratioP2;P2;SDS_P1;SDS_P2;PMS_P1;PMS_P2;Temp;Humidity;BMP_temperature;BMP_pressure;BME280_temperature;BME280_humidity;BME280_pressure;Samples;Min_cycle;Max_cycle;Signal;HPM_P1;HPM_P2
2021/11/19 00:01:09;;;;;;;3.33;1.73;;;;;;;12.32;84.65;102255.41;5009880;28;20052;-83
2021/11/19 00:03:36;;;;;;;6.43;2.22;;;;;;;12.30;84.73;102263.25;5008982;28;20034;-79
2021/11/19 00:06:03;;;;;;;1.90;1.77;;;;;;;12.30;84.66;102263.25;5020237;28;20043;-79
2021/11/19 00:08:31;;;;;;;3.30;2.20;;;;;;;12.28;84.96;102257.19;5018769;28;20030;-80
2021/11/19 00:11:04;;;;;;;2.70;1.33;;;;;;;12.29;85.07;102267.13;5005184;28;20053;-80
2021/11/19 00:13:31;;;;;;;2.97;1.95;;;;;;;12.30;84.99;102268.78;5005655;28;20042;-81
2021/11/19 00:15:59;;;;;;;4.63;1.85;;;;;;;12.28;85.28;102276.63;5000091;28;20041;-80
2021/11/19 00:18:27;;;;;;;2.83;1.85;;;;;;;12.26;85.32;102273.31;5016222;28;20116;-80
2021/11/19 00:20:55;;;;;;;1.70;1.60;;;;;;;12.24;85.14;102275.63;5021641;28;20060;-80
2021/11/19 00:23:22;;;;;;;1.88;1.38;;;;;;;12.22;85.11;102266.78;5019059;28;20466;-80
2021/11/19 00:25:50;;;;;;;3.13;1.55;;;;;;;12.23;85.12;102267.63;5018823;28;20038;-79
2021/11/19 00:28:18;;;;;;;5.13;2.50;;;;;;;12.25;84.98;102273.66;5023106;28;20034;-80
2021/11/19 00:30:46;;;;;;;1.52;1.20;;;;;;;12.25;85.18;102277.25;5011564;28;20050;-80
2021/11/19 00:33:14;;;;;;;1.50;1.23;;;;;;;12.22;85.08;102266.78;5012828;28;20081;-80
2021/11/19 00:35:44;;;;;;;5.32;1.23;;;;;;;12.23;85.15;102265.66;5011823;28;20488;-79
2021/11/19 00:38:13;;;;;;;3.67;1.25;;;;;;;12.22;84.95;102272.34;5016244;28;20049;-80
2021/11/19 00:40:47;;;;;;;1.60;1.20;;;;;;;12.18;85.29;102263.81;5021048;28;20037;-80
2021/11/19 00:43:14;;;;;;;2.72;1.10;;;;;;;12.19;85.13;102261.88;5013406;28;20074;-80
2021/11/19 00:45:42;;;;;;;1.27;1.00;;;;;;;12.19;84.99;102279.34;5012367;28;20109;-80
2021/11/19 00:48:09;;;;;;;1.33;1.10;;;;;;;12.17;84.97;102270.53;5013584;28;20410;-80
2021/11/19 00:50:45;;;;;;;0.85;0.85;;;;;;;12.18;84.73;102287.97;5018174;28;20037;-80
2021/11/19 00:53:12;;;;;;;0.73;0.73;;;;;;;12.17;84.61;102286.38;5022733;28;20160;-80
2021/11/19 00:55:39;;;;;;;1.40;1.30;;;;;;;12.16;84.73;102279.16;5019735;28;20076;-81
2021/11/19 00:58:07;;;;;;;1.85;0.95;;;;;;;12.17;84.44;102286.38;5018811;28;20064;-80
2021/11/19 01:00:41;;;;;;;1.35;1.25;;;;;;;12.17;84.43;102280.81;5014370;28;20042;-80
2021/11/19 01:03:09;;;;;;;1.52;0.70;;;;;;;12.19;84.28;102275.75;5020355;28;20433;-80
2021/11/19 01:05:37;;;;;;;0.63;0.63;;;;;;;12.19;84.13;102284.91;5021507;28;20489;-80
2021/11/19 01:08:06;;;;;;;4.05;1.48;;;;;;;12.21;84.05;102299.28;5021840;28;20033;-80
2021/11/19 01:10:36;;;;;;;0.98;0.90;;;;;;;12.21;83.99;102288.19;5020659;28;20094;-80
2021/11/19 01:13:04;;;;;;;1.88;0.55;;;;;;;12.21;83.83;102281.81;5015953;28;20134;-80
2021/11/19 01:15:41;;;;;;;1.52;0.63;;;;;;;12.21;83.59;102287.34;5017781;28;20120;-80
2021/11/19 01:18:26;;;;;;;5.45;0.85;;;;;;;12.22;83.43;102272.34;5022431;28;20065;-80
2021/11/19 01:21:16;;;;;;;2.55;0.68;;;;;;;12.23;83.38;102284.28;5018732;28;20124;-80
2021/11/19 01:23:44;;;;;;;1.45;0.50;;;;;;;12.23;83.12;102279.53;5014969;28;20038;-79
2021/11/19 01:26:20;;;;;;;1.25;0.80;;;;;;;12.22;82.94;102280.69;5020558;28;20034;-80
2021/11/19 01:28:50;;;;;;;1.35;0.73;;;;;;;12.21;82.91;102268.75;5024942;28;20049;-80
2021/11/19 01:31:21;;;;;;;0.88;0.60;;;;;;;12.23;82.62;102274.00;5019904;28;20045;-80
2021/11/19 01:33:48;;;;;;;0.85;0.40;;;;;;;12.26;82.49;102269.75;5026067;28;20485;-80
2021/11/19 01:36:17;;;;;;;0.43;0.43;;;;;;;12.26;82.56;102266.97;5021513;28;20457;-80
2021/11/19 01:38:46;;;;;;;3.45;0.68;;;;;;;12.26;82.42;102273.31;5028928;28;20087;-80
2021/11/19 01:41:17;;;;;;;0.40;0.40;;;;;;;12.26;82.19;102273.31;5017501;28;20088;-80
2021/11/19 01:43:46;;;;;;;1.85;0.65;;;;;;;12.27;81.96;102269.44;5040787;28;20491;-80
2021/11/19 01:46:18;;;;;;;2.78;0.40;;;;;;;12.26;81.92;102266.97;5020310;28;20088;-80
2021/11/19 01:48:48;;;;;;;0.50;0.45;;;;;;;12.26;81.76;102265.00;5028009;28;20435;-80
2021/11/19 01:51:18;;;;;;;0.82;0.57;;;;;;;12.27;81.55;102263.88;5011770;28;20065;-80
2021/11/19 01:53:50;;;;;;;0.57;0.30;;;;;;;12.27;81.39;102263.03;5021952;28;20069;-80
2021/11/19 01:56:26;;;;;;;1.17;0.40;;;;;;;12.28;81.40;102253.59;5022050;28;20154;-80
2021/11/19 01:59:15;;;;;;;0.82;0.50;;;;;;;12.28;81.34;102259.16;5027603;28;20401;-80
2021/11/19 02:01:45;;;;;;;1.05;1.00;;;;;;;12.28;81.38;102259.97;5002438;28;20049;-80
2021/11/19 02:04:17;;;;;;;0.77;0.47;;;;;;;12.29;81.38;102252.44;5026764;28;20111;-79
2021/11/19 02:06:49;;;;;;;0.90;0.50;;;;;;;12.28;81.15;102250.81;5024213;28;20069;-80
2021/11/19 02:09:41;;;;;;;3.33;0.30;;;;;;;12.27;80.69;102247.22;5020521;28;20052;-79
2021/11/19 02:12:51;;;;;;;0.88;0.50;;;;;;;12.28;81.04;102248.84;5002021;28;20536;-80
2021/11/19 02:15:22;;;;;;;2.03;0.50;;;;;;;12.29;81.02;102252.44;5020555;28;20053;-80
2021/11/19 02:17:53;;;;;;;1.30;0.80;;;;;;;12.30;80.97;102252.13;5026476;28;20080;-79
2021/11/19 02:20:28;;;;;;;0.57;0.43;;;;;;;12.29;80.79;102256.03;5008146;28;20115;-80
2021/11/19 02:23:02;;;;;;;0.45;0.20;;;;;;;12.29;80.62;102256.03;5021455;28;20127;-80
2021/11/19 02:25:37;;;;;;;0.28;0.28;;;;;;;12.29;80.45;102260.75;5022934;28;20034;-80
2021/11/19 02:28:10;;;;;;;1.35;1.27;;;;;;;12.29;80.47;102247.69;5019317;28;20056;-80
2021/11/19 02:30:51;;;;;;;0.68;0.30;;;;;;;12.28;80.08;102259.16;5014841;28;20065;-80
2021/11/19 02:33:19;;;;;;;0.38;0.32;;;;;;;12.28;80.34;102254.41;5021924;28;20713;-80
2021/11/19 02:36:00;;;;;;;0.30;0.20;;;;;;;12.27;79.70;102258.31;5021748;28;20095;-80
2021/11/19 02:38:51;;;;;;;0.33;0.20;;;;;;;12.27;80.17;102258.31;5022050;28;20041;-80
2021/11/19 02:41:29;;;;;;;0.20;0.20;;;;;;;12.25;79.92;102245.91;5012396;28;20034;-80
2021/11/19 02:44:00;;;;;;;0.30;0.30;;;;;;;12.23;79.88;102246.22;5027295;28;20071;-81
2021/11/19 02:46:31;;;;;;;0.28;0.25;;;;;;;12.22;79.94;102250.13;5014004;28;20042;-80
2021/11/19 02:48:58;;;;;;;0.98;0.13;;;;;;;12.19;80.06;102248.00;5022972;28;20428;-80
2021/11/19 02:51:28;;;;;;;0.32;0.28;;;;;;;12.17;80.22;102248.31;5020110;28;20129;-79
2021/11/19 02:53:56;;;;;;;0.20;0.10;;;;;;;12.14;80.34;102242.56;5026233;28;20104;-79
2021/11/19 02:56:23;;;;;;;0.10;0.10;;;;;;;12.13;80.44;102247.31;5018320;28;20072;-80
2021/11/19 02:58:53;;;;;;;0.40;0.20;;;;;;;12.08;80.51;102243.84;5002038;28;20123;-80
2021/11/19 03:01:34;;;;;;;0.47;0.30;;;;;;;12.02;80.49;102234.03;5012220;28;20108;-80
2021/11/19 03:04:04;;;;;;;0.20;0.20;;;;;;;11.95;80.79;102244.75;5024834;28;20064;-80
2021/11/19 03:06:33;;;;;;;0.68;0.65;;;;;;;11.90;80.80;102242.13;5021179;28;20034;-80
2021/11/19 03:09:00;;;;;;;2.38;0.40;;;;;;;11.82;81.20;102240.94;5021276;28;20149;-80
2021/11/19 03:11:27;;;;;;;0.60;0.43;;;;;;;11.78;81.39;102230.78;5017446;28;20565;-79
2021/11/19 03:13:54;;;;;;;1.52;1.05;;;;;;;11.74;81.43;102238.94;5025422;28;20145;-80
2021/11/19 03:16:21;;;;;;;1.33;0.50;;;;;;;11.70;81.51;102235.16;5013162;28;20497;-80
2021/11/19 03:18:48;;;;;;;1.20;0.55;;;;;;;11.65;81.99;102237.22;5025012;28;20079;-80
2021/11/19 03:21:17;;;;;;;0.55;0.40;;;;;;;11.60;82.19;102236.19;5019589;28;20042;-80
2021/11/19 03:23:46;;;;;;;1.00;0.90;;;;;;;11.56;82.38;102226.03;5026079;28;20037;-80
2021/11/19 03:26:14;;;;;;;1.15;0.57;;;;;;;11.50;82.53;102225.34;5015837;28;20466;-80
2021/11/19 03:28:44;;;;;;;1.17;0.70;;;;;;;11.46;82.66;102232.66;5024390;28;20041;-80
2021/11/19 03:31:14;;;;;;;1.10;0.52;;;;;;;11.40;83.10;102231.16;5020631;28;20470;-80
2021/11/19 03:33:44;;;;;;;2.00;0.88;;;;;;;11.36;83.21;102218.22;5022614;28;20048;-80
2021/11/19 03:36:12;;;;;;;0.70;0.70;;;;;;;11.33;83.26;102221.66;5015263;28;20099;-80
2021/11/19 03:38:44;;;;;;;1.77;1.02;;;;;;;11.27;83.67;102222.88;5011373;28;20057;-80
2021/11/19 03:41:13;;;;;;;2.35;0.90;;;;;;;11.26;83.74;102221.25;5008067;28;20042;-81
2021/11/19 03:43:49;;;;;;;1.35;1.00;;;;;;;11.23;83.95;102225.47;5019182;28;20107;-81
2021/11/19 03:46:22;;;;;;;2.40;1.25;;;;;;;11.22;83.62;102217.47;5016641;28;20056;-79
2021/11/19 03:48:49;;;;;;;1.75;1.35;;;;;;;11.21;84.27;102219.41;5016558;28;20553;-80
2021/11/19 03:51:19;;;;;;;1.33;0.95;;;;;;;11.20;84.32;102216.97;5014141;28;20466;-80
2021/11/19 03:53:46;;;;;;;4.53;2.33;;;;;;;11.19;84.53;102224.47;5026848;28;20072;-80
2021/11/19 03:56:15;;;;;;;2.63;1.10;;;;;;;11.17;84.50;102212.88;5013867;28;20494;-81
2021/11/19 03:58:44;;;;;;;2.20;1.25;;;;;;;11.15;84.89;102211.53;5012116;28;20073;-80
2021/11/19 04:01:23;;;;;;;1.05;0.95;;;;;;;11.11;84.75;102211.34;5010350;28;20053;-80
2021/11/19 04:03:51;;;;;;;1.73;1.13;;;;;;;11.10;84.94;102215.25;5019436;28;20041;-80
2021/11/19 04:06:20;;;;;;;1.52;1.20;;;;;;;11.07;84.98;102215.88;5003871;28;20551;-80
2021/11/19 04:08:48;;;;;;;1.55;1.27;;;;;;;11.07;85.30;102212.28;5019581;28;20097;-80
2021/11/19 04:11:15;;;;;;;1.25;1.15;;;;;;;11.03;85.39;102212.09;5016745;28;20110;-80
2021/11/19 04:13:43;;;;;;;2.03;1.08;;;;;;;11.01;85.65;102219.91;5007504;28;20072;-80
2021/11/19 04:16:24;;;;;;;1.30;0.70;;;;;;;11.00;85.69;102219.06;5012739;28;20504;-80
2021/11/19 04:18:52;;;;;;;1.77;1.00;;;;;;;11.00;85.62;102223.78;5023618;28;20037;-80
2021/11/19 04:21:20;;;;;;;0.68;0.68;;;;;;;11.00;85.64;102218.25;5017849;28;20062;-81
2021/11/19 04:23:49;;;;;;;1.50;1.35;;;;;;;10.97;85.71;102222.47;5021260;28;20040;-80
2021/11/19 04:26:17;;;;;;;1.00;0.90;;;;;;;10.96;85.85;102215.28;5017491;28;20048;-80
2021/11/19 04:28:45;;;;;;;1.13;1.00;;;;;;;10.95;85.99;102219.19;5024568;28;20159;-80
2021/11/19 04:31:13;;;;;;;2.75;1.10;;;;;;;10.94;86.09;102208.41;5015954;28;20120;-80
2021/11/19 04:33:41;;;;;;;3.50;0.88;;;;;;;10.93;86.18;102207.59;5017342;28;20033;-79
2021/11/19 04:36:08;;;;;;;2.42;1.15;;;;;;;10.94;86.14;102211.19;5020528;28;20037;-80
2021/11/19 04:38:36;;;;;;;1.77;0.93;;;;;;;10.92;86.24;102199.59;5024559;28;20042;-80
2021/11/19 04:41:04;;;;;;;1.85;0.73;;;;;;;10.91;86.25;102209.84;5007344;28;20095;-80
2021/11/19 04:43:33;;;;;;;0.70;0.70;;;;;;;10.91;86.27;102211.81;5025554;28;20137;-80
2021/11/19 04:46:00;;;;;;;0.70;0.65;;;;;;;10.91;86.33;102209.84;5019746;28;20033;-81
2021/11/19 04:48:31;;;;;;;1.08;0.70;;;;;;;10.92;86.30;102214.28;5002443;28;20572;-80
2021/11/19 04:50:58;;;;;;;0.60;0.60;;;;;;;10.92;86.38;102205.13;5018241;28;20653;-80
2021/11/19 04:53:26;;;;;;;1.73;0.90;;;;;;;10.91;86.45;102214.56;5022174;28;20589;-80
2021/11/19 04:55:54;;;;;;;0.80;0.80;;;;;;;10.90;86.34;102207.41;5017023;28;20116;-80
2021/11/19 04:58:22;;;;;;;0.90;0.60;;;;;;;10.88;86.41;102213.25;5010556;28;20046;-80
2021/11/19 05:00:54;;;;;;;2.55;1.95;;;;;;;10.87;86.19;102208.84;5018927;28;20371;-80
2021/11/19 05:03:22;;;;;;;0.60;0.60;;;;;;;10.87;86.11;102214.41;5022748;28;20041;-80
2021/11/19 05:05:50;;;;;;;0.40;0.40;;;;;;;10.85;86.10;102215.84;5011562;28;20423;-80
2021/11/19 05:08:17;;;;;;;0.82;0.50;;;;;;;10.83;86.17;102212.53;5025068;28;20124;-80
2021/11/19 05:10:47;;;;;;;1.00;0.63;;;;;;;10.80;86.31;102211.22;5013980;28;20528;-80
2021/11/19 05:13:16;;;;;;;1.55;0.60;;;;;;;10.80;86.42;102221.50;5012568;28;20474;-80
2021/11/19 05:15:46;;;;;;;0.55;0.40;;;;;;;10.79;86.40;102211.53;5004902;28;20037;-79
2021/11/19 05:18:13;;;;;;;0.60;0.60;;;;;;;10.75;86.61;102216.88;5026164;28;20048;-80
2021/11/19 05:20:40;;;;;;;0.50;0.45;;;;;;;10.75;86.70;102216.88;5022789;28;20037;-80
2021/11/19 05:23:07;;;;;;;0.40;0.40;;;;;;;10.76;86.63;102217.69;5024266;28;20129;-80
2021/11/19 05:25:36;;;;;;;0.77;0.75;;;;;;;10.75;86.58;102222.41;5015582;28;20485;-80
2021/11/19 05:28:03;;;;;;;1.25;1.15;;;;;;;10.74;86.64;102215.25;5019404;28;20116;-80
2021/11/19 05:30:30;;;;;;;1.00;0.60;;;;;;;10.73;86.77;102221.06;5016750;28;20486;-80
2021/11/19 05:32:57;;;;;;;1.23;0.38;;;;;;;10.72;86.94;102228.56;5017927;28;20045;-80
2021/11/19 05:35:24;;;;;;;1.02;0.43;;;;;;;10.71;86.87;102223.34;5020729;28;20157;-80
2021/11/19 05:37:52;;;;;;;0.43;0.35;;;;;;;10.72;86.71;102228.56;5019980;28;20128;-80
2021/11/19 05:40:21;;;;;;;0.47;0.43;;;;;;;10.71;86.92;102224.16;5022088;28;20469;-80
2021/11/19 05:42:49;;;;;;;1.85;1.25;;;;;;;10.69;86.76;102229.22;5013652;28;20056;-80
2021/11/19 05:45:17;;;;;;;0.63;0.40;;;;;;;10.68;86.71;102223.97;5014006;28;20025;-80
2021/11/19 05:47:44;;;;;;;0.82;0.50;;;;;;;10.67;86.95;102231.44;5005411;28;20375;-80
2021/11/19 05:50:12;;;;;;;0.50;0.40;;;;;;;10.68;87.04;102237.81;5018491;28;20088;-80
2021/11/19 05:52:39;;;;;;;0.35;0.35;;;;;;;10.66;86.96;102226.22;5020391;28;20141;-80
2021/11/19 05:55:10;;;;;;;1.17;0.63;;;;;;;10.65;87.02;102222.63;5016630;28;20468;-81
2021/11/19 05:57:37;;;;;;;0.40;0.30;;;;;;;10.64;86.81;102226.56;5022788;28;20042;-80
2021/11/19 06:00:09;;;;;;;1.95;0.43;;;;;;;10.63;86.99;102230.44;5017689;28;20061;-80
2021/11/19 06:02:35;;;;;;;0.40;0.40;;;;;;;10.61;87.19;102227.16;5018792;28;20073;-81
2021/11/19 06:05:04;;;;;;;2.28;0.25;;;;;;;10.60;87.18;102235.75;5019899;28;20034;-80
2021/11/19 06:07:31;;;;;;;1.55;0.30;;;;;;;10.58;87.44;102232.50;5018749;28;20437;-80
2021/11/19 06:09:58;;;;;;;0.68;0.68;;;;;;;10.59;87.15;102229.41;5017262;28;20124;-81
2021/11/19 06:12:38;;;;;;;0.73;0.32;;;;;;;10.57;87.41;102239.16;5016579;28;20046;-80
2021/11/19 06:15:27;;;;;;;0.88;0.47;;;;;;;10.55;87.59;102239.47;4997987;28;20045;-80
2021/11/19 06:18:01;;;;;;;0.30;0.30;;;;;;;10.56;87.44;102241.13;5016984;28;20045;-80
2021/11/19 06:20:40;;;;;;;0.60;0.60;;;;;;;10.56;87.15;102240.28;5023693;28;20555;-80
2021/11/19 06:23:12;;;;;;;0.43;0.40;;;;;;;10.54;87.38;102248.91;5006929;28;20041;-80
2021/11/19 06:25:41;;;;;;;0.52;0.40;;;;;;;10.54;87.25;102251.66;5023982;28;20041;-80
2021/11/19 06:28:23;;;;;;;0.60;0.38;;;;;;;10.53;87.48;102247.28;5023562;28;20136;-80
2021/11/19 06:30:50;;;;;;;0.52;0.43;;;;;;;10.53;87.51;102250.03;5015314;28;20045;-80
2021/11/19 06:33:19;;;;;;;0.63;0.35;;;;;;;10.53;87.65;102246.44;5024131;28;20541;-80
2021/11/19 06:35:47;;;;;;;0.30;0.30;;;;;;;10.53;87.40;102251.97;5028427;28;20087;-80
2021/11/19 06:38:15;;;;;;;1.95;0.40;;;;;;;10.54;87.71;102245.34;5018588;28;20058;-80
2021/11/19 06:40:43;;;;;;;0.63;0.55;;;;;;;10.56;87.68;102251.38;5024591;28;20042;-81
2021/11/19 06:43:09;;;;;;;0.32;0.32;;;;;;;10.60;87.80;102246.84;5026655;28;20576;-80
2021/11/19 06:45:36;;;;;;;1.40;0.52;;;;;;;10.63;87.89;102257.31;5019852;28;20042;-80
2021/11/19 06:48:05;;;;;;;0.35;0.28;;;;;;;10.64;87.70;102253.41;5021908;28;20029;-80
2021/11/19 06:50:36;;;;;;;0.35;0.30;;;;;;;10.64;87.75;102248.72;5023048;28;20731;-80
2021/11/19 06:53:04;;;;;;;0.70;0.40;;;;;;;10.68;87.67;102254.44;5027720;28;20116;-80
2021/11/19 06:55:32;;;;;;;0.63;0.38;;;;;;;10.69;87.90;102256.09;5020966;28;20465;-80
2021/11/19 06:57:59;;;;;;;0.77;0.60;;;;;;;10.73;87.62;102265.41;5025124;28;20052;-80
2021/11/19 07:00:29;;;;;;;1.00;0.70;;;;;;;10.75;87.85;102263.16;5001387;28;20042;-81
2021/11/19 07:02:57;;;;;;;0.68;0.45;;;;;;;10.77;87.78;102274.75;5016779;28;20077;-81
2021/11/19 07:05:25;;;;;;;0.57;0.32;;;;;;;10.79;87.68;102272.47;5022350;28;20103;-80
2021/11/19 07:07:52;;;;;;;1.27;0.43;;;;;;;10.78;87.86;102281.91;5023623;28;20128;-80
2021/11/19 07:10:22;;;;;;;0.73;0.50;;;;;;;10.76;87.58;102273.09;5018032;28;20048;-80
2021/11/19 07:12:49;;;;;;;0.45;0.40;;;;;;;10.74;87.51;102280.91;5020335;28;20709;-80
2021/11/19 07:15:17;;;;;;;0.77;0.55;;;;;;;10.73;87.62;102285.63;5014311;28;20523;-80
2021/11/19 07:17:46;;;;;;;0.52;0.40;;;;;;;10.69;87.39;102284.59;5021734;28;20053;-80
2021/11/19 07:20:16;;;;;;;0.30;0.30;;;;;;;10.66;87.34;102285.22;5013537;28;20073;-81
2021/11/19 07:22:44;;;;;;;0.65;0.50;;;;;;;10.65;87.13;102282.75;5020034;28;20091;-80
2021/11/19 07:25:15;;;;;;;0.38;0.38;;;;;;;10.60;87.36;102282.84;5017928;28;20045;-80
2021/11/19 07:27:43;;;;;;;0.77;0.65;;;;;;;10.57;87.43;102291.75;5025183;28;20115;-81
2021/11/19 07:30:16;;;;;;;0.73;0.52;;;;;;;10.57;87.24;102298.13;5018457;28;20069;-80
2021/11/19 07:32:43;;;;;;;;;;;;;;;10.53;87.48;102296.28;5019249;28;20118;-80
2021/11/19 07:35:10;;;;;;;0.60;0.55;;;;;;;10.51;87.23;102293.81;5019200;28;20365;-80
2021/11/19 07:37:38;;;;;;;0.95;0.63;;;;;;;10.49;87.58;102307.16;5021148;28;20132;-80
2021/11/19 07:40:09;;;;;;;2.15;0.47;;;;;;;10.50;87.51;102302.44;5017300;28;20412;-80
2021/11/19 07:42:36;;;;;;;1.33;0.80;;;;;;;10.53;87.64;102301.81;5022528;28;20061;-80
2021/11/19 07:45:04;;;;;;;3.25;0.63;;;;;;;10.55;87.51;102311.47;5017655;28;20137;-80
2021/11/19 07:47:31;;;;;;;2.92;0.40;;;;;;;10.60;87.48;102313.31;5022106;28;20038;-80
2021/11/19 07:49:58;;;;;;;1.40;0.70;;;;;;;10.63;87.65;102315.47;5020943;28;20045;-80
2021/11/19 07:52:25;;;;;;;0.57;0.30;;;;;;;10.67;87.64;102313.75;5005066;28;20119;-80
2021/11/19 07:54:51;;;;;;;0.88;0.50;;;;;;;10.72;87.48;102319.19;5017075;28;20131;-80
2021/11/19 07:57:18;;;;;;;0.93;0.52;;;;;;;10.75;87.54;102318.56;5024265;28;20050;-80
2021/11/19 07:59:45;;;;;;;0.50;0.30;;;;;;;10.78;87.38;102323.47;5016287;28;20351;-80
2021/11/19 08:02:12;;;;;;;0.30;0.30;;;;;;;10.80;87.24;102327.56;5022386;28;20037;-81
2021/11/19 08:04:39;;;;;;;0.47;0.35;;;;;;;10.84;87.29;102323.06;5013917;28;20084;-80
2021/11/19 08:07:07;;;;;;;0.70;0.47;;;;;;;10.85;87.17;102324.72;5013756;28;20133;-81
2021/11/19 08:09:35;;;;;;;3.50;0.60;;;;;;;10.88;87.09;102326.06;5015322;28;20045;-81
2021/11/19 08:12:03;;;;;;;1.15;0.50;;;;;;;10.91;87.24;102323.47;5023363;28;20539;-81
2021/11/19 08:14:30;;;;;;;3.25;0.70;;;;;;;10.96;87.12;102330.88;5016696;28;20053;-81
2021/11/19 08:17:02;;;;;;;0.43;0.40;;;;;;;10.98;86.99;102325.84;5008848;28;20049;-80
2021/11/19 08:19:43;;;;;;;3.63;0.50;;;;;;;11.01;86.98;102325.22;5014472;28;20081;-81
2021/11/19 08:22:13;;;;;;;0.63;0.60;;;;;;;11.02;86.79;102326.84;5017572;28;20133;-80
2021/11/19 08:24:42;;;;;;;2.67;0.80;;;;;;;11.04;86.78;102334.84;5018411;28;20034;-81
2021/11/19 08:27:22;;;;;;;4.30;0.57;;;;;;;11.07;86.75;102334.25;5011865;28;20132;-81
2021/11/19 08:29:54;;;;;;;15.18;2.30;;;;;;;11.10;86.93;102328.06;5018305;28;20053;-80
2021/11/19 08:32:23;;;;;;;6.35;0.88;;;;;;;11.13;86.60;102331.03;5006701;28;20056;-81
2021/11/19 08:34:50;;;;;;;3.83;1.20;;;;;;;11.15;86.66;102333.47;5019551;28;20156;-80
2021/11/19 08:37:20;;;;;;;7.97;0.90;;;;;;;11.17;86.86;102337.63;5011275;28;20093;-81
2021/11/19 08:39:48;;;;;;;3.47;0.80;;;;;;;11.20;86.74;102339.75;5021335;28;20104;-81
2021/11/19 08:42:15;;;;;;;1.55;0.60;;;;;;;11.23;86.60;102338.28;5004333;28;20081;-81
2021/11/19 08:44:44;;;;;;;5.60;0.40;;;;;;;11.25;86.39;102338.84;5014911;28;20045;-83
2021/11/19 08:47:31;;;;;;;0.45;0.20;;;;;;;11.29;86.13;102342.59;5019681;28;20042;-81
2021/11/19 08:50:02;;;;;;;0.85;0.40;;;;;;;11.29;86.15;102337.06;5010464;28;20120;-82
2021/11/19 08:52:29;;;;;;;1.60;0.43;;;;;;;11.32;86.04;102339.22;5019211;28;20039;-81
2021/11/19 08:54:56;;;;;;;2.70;0.60;;;;;;;11.33;85.97;102336.13;5017624;28;20034;-80
2021/11/19 08:57:25;;;;;;;3.75;0.40;;;;;;;11.33;85.91;102333.34;5013526;28;20140;-81
2021/11/19 08:59:54;;;;;;;4.05;0.55;;;;;;;11.34;85.81;102329.44;5013933;28;20045;-81
2021/11/19 09:02:24;;;;;;;3.10;0.40;;;;;;;11.36;85.78;102338.28;5021904;28;20116;-81
2021/11/19 09:05:03;;;;;;;1.42;0.40;;;;;;;11.37;85.86;102337.16;5012530;28;20036;-81
2021/11/19 09:07:32;;;;;;;2.20;0.52;;;;;;;11.39;85.64;102343.19;5026489;28;20045;-81
2021/11/19 09:10:02;;;;;;;1.50;0.50;;;;;;;11.41;85.76;102346.47;5002608;28;20029;-81
2021/11/19 09:12:30;;;;;;;1.85;0.32;;;;;;;11.44;85.42;102340.31;5005491;28;20036;-81
2021/11/19 09:14:57;;;;;;;3.05;0.88;;;;;;;11.47;85.39;102344.41;4999017;28;20471;-82
2021/11/19 09:17:32;;;;;;;4.82;0.63;;;;;;;11.48;85.28;102346.88;5016058;28;20045;-81
2021/11/19 09:20:50;;;;;;;4.50;0.60;;;;;;;11.50;84.86;102352.94;5017004;28;20091;-80
2021/11/19 09:23:21;;;;;;;4.15;0.88;;;;;;;11.55;84.92;102358.38;5055515;28;20074;-82
2021/11/19 09:25:50;;;;;;;2.40;1.97;;;;;;;11.57;85.18;102350.53;5037524;28;20049;-81
2021/11/19 09:28:21;;;;;;;2.08;1.23;;;;;;;11.60;84.92;102355.47;5021900;28;20577;-81
2021/11/19 09:30:54;;;;;;;2.23;0.83;;;;;;;11.61;84.54;102361.84;5016828;28;20029;-81
2021/11/19 09:33:23;;;;;;;5.47;1.17;;;;;;;11.62;84.65;102363.50;5017578;28;20048;-81
2021/11/19 09:35:51;;;;;;;4.15;1.08;;;;;;;11.62;84.74;102363.50;5008038;28;20050;-82
2021/11/19 09:38:21;;;;;;;1.60;0.28;;;;;;;11.58;84.58;102368.00;5015884;28;20108;-81
2021/11/19 09:41:26;;;;;;;3.97;0.63;;;;;;;11.58;84.55;102371.59;5013849;28;20037;-82
2021/11/19 09:44:24;;;;;;;1.90;0.38;;;;;;;11.57;84.15;102372.72;5018598;28;20124;-82
2021/11/19 09:47:08;;;;;;;1.05;0.38;;;;;;;11.56;84.40;102365.56;5013933;28;20103;-82
2021/11/19 09:49:59;;;;;;;2.58;0.30;;;;;;;11.56;84.52;102371.09;5005295;28;20382;-81
2021/11/19 09:52:45;;;;;;;1.17;0.40;;;;;;;11.56;84.51;102375.84;5018976;28;20053;-81
2021/11/19 09:55:31;;;;;;;3.40;0.40;;;;;;;11.61;84.31;102376.53;5010174;28;20077;-81
2021/11/19 09:57:57;;;;;;;3.33;1.13;;;;;;;11.69;84.79;102374.19;5021827;28;20050;-81
2021/11/19 10:00:53;;;;;;;2.83;0.20;;;;;;;11.76;84.61;102369.00;5024126;28;20044;-81
2021/11/19 10:03:29;;;;;;;2.97;0.63;;;;;;;11.81;84.44;102383.59;5018987;28;20050;-91
2021/11/19 10:06:11;;;;;;;1.10;0.20;;;;;;;11.87;84.49;102367.63;5023412;28;20133;-81
2021/11/19 10:08:44;;;;;;;1.73;0.37;;;;;;;11.95;84.32;102372.44;5021478;28;20088;-82
2021/11/19 10:11:19;;;;;;;1.90;0.30;;;;;;;12.05;84.07;102363.84;5023048;28;20099;-81
2021/11/19 10:14:11;;;;;;;1.92;0.40;;;;;;;12.13;83.13;102369.47;5016558;28;20061;-81
2021/11/19 10:16:57;;;;;;;0.35;0.20;;;;;;;12.19;83.37;102367.38;5020112;28;20068;-80
2021/11/19 10:19:27;;;;;;;1.45;0.15;;;;;;;12.21;83.30;102374.25;5017532;28;20048;-80
2021/11/19 10:22:00;;;;;;;3.72;1.00;;;;;;;12.20;82.07;102369.03;5030231;28;20062;-81
2021/11/19 10:24:43;;;;;;;0.98;0.20;;;;;;;12.23;82.04;102368.41;5019460;28;20045;-81
2021/11/19 10:27:19;;;;;;;0.30;0.10;;;;;;;12.20;81.08;102369.03;5016267;28;20494;-81
2021/11/19 10:29:48;;;;;;;0.35;0.10;;;;;;;12.16;81.65;102365.25;5023733;28;20054;-81
2021/11/19 10:32:20;;;;;;;0.40;0.30;;;;;;;12.12;81.44;102364.25;5018287;28;20099;-81
2021/11/19 10:35:09;;;;;;;0.22;0.22;;;;;;;12.06;80.88;102352.44;5018989;28;20374;-81
2021/11/19 10:37:55;;;;;;;0.10;0.10;;;;;;;11.98;81.04;102350.44;5016873;28;20100;-81
2021/11/19 10:40:46;;;;;;;2.90;0.15;;;;;;;11.92;80.80;102357.22;5016015;28;20466;-82
2021/11/19 10:43:32;;;;;;;0.13;0.03;;;;;;;11.86;80.30;102352.94;5012750;28;20039;-81
2021/11/19 10:46:24;;;;;;;2.10;0.15;;;;;;;11.81;80.48;102349.47;5020262;28;20111;-83
2021/11/19 10:48:58;;;;;;;;;;;;;;;11.76;79.99;102349.59;5016610;28;20493;-80
2021/11/19 10:52:09;;;;;;;1.02;0.20;;;;;;;11.73;80.56;102344.69;5026367;28;19916;-81
2021/11/19 10:55:14;;;;;;;0.10;0.10;;;;;;;11.70;79.65;102354.47;4997026;28;20096;-81
2021/11/19 10:58:08;;;;;;;0.30;0.20;;;;;;;11.72;80.34;102341.09;5014054;28;20062;-80
2021/11/19 11:01:00;;;;;;;2.08;0.65;;;;;;;11.72;79.74;102345.81;5018128;28;20037;-81
2021/11/19 11:03:34;;;;;;;0.00;0.00;;;;;;;11.74;80.15;102333.25;5024958;28;20136;-80
2021/11/19 11:06:08;;;;;;;0.10;0.00;;;;;;;11.76;79.96;102335.72;5012619;28;20034;-81
2021/11/19 11:08:41;;;;;;;0.95;0.65;;;;;;;11.76;79.91;102336.53;5017597;28;20046;-82
2021/11/19 11:11:12;;;;;;;;;;;;;;;11.77;79.46;102331.81;5019014;28;20168;-81
2021/11/19 11:13:55;;;;;;;0.30;0.20;;;;;;;11.81;79.92;102332.84;5015751;28;19916;-88
2021/11/19 11:16:29;;;;;;;1.38;0.30;;;;;;;11.81;79.84;102327.28;5019190;28;20037;-82
2021/11/19 11:18:58;;;;;;;1.42;0.50;;;;;;;11.81;79.99;102327.28;5022175;28;20041;-92
2021/11/19 11:21:51;;;;;;;2.47;0.35;;;;;;;11.82;80.05;102340.00;5019371;28;20034;-87
2021/11/19 11:24:24;;;;;;;0.85;0.40;;;;;;;11.77;79.95;102331.81;5025645;28;20049;-87
2021/11/19 11:27:10;;;;;;;0.03;0.03;;;;;;;11.73;79.82;102325.25;5018841;28;20049;-88
2021/11/19 11:29:49;;;;;;;0.20;0.10;;;;;;;11.71;80.34;102339.44;5014586;28;20355;-88
2021/11/19 11:32:42;;;;;;;1.35;0.30;;;;;;;11.71;80.37;102327.50;5024634;28;20428;-86
2021/11/19 11:35:12;;;;;;;0.68;0.20;;;;;;;11.70;80.54;102331.44;5023281;28;20061;-87
2021/11/19 11:38:15;;;;;;;1.58;0.20;;;;;;;11.69;80.36;102338.94;5032473;28;20057;-88
2021/11/19 11:41:34;;;;;;;1.45;0.40;;;;;;;11.70;80.38;102331.44;5019032;28;20026;-87
2021/11/19 11:44:23;;;;;;;0.10;0.10;;;;;;;11.71;80.28;102333.06;5022956;28;20045;-87
2021/11/19 11:47:05;;;;;;;3.83;0.73;;;;;;;11.68;80.18;102328.09;5013458;28;20060;-87
2021/11/19 11:49:41;;;;;;;0.20;0.20;;;;;;;11.70;80.25;102326.72;5024797;28;20612;-87
2021/11/19 11:52:36;;;;;;;2.22;0.15;;;;;;;11.69;80.11;102330.63;5020351;28;20057;-89